Telluride, CO (81435)

4:44 AM MST on February 11, 2016 (GMT -0700)
Upper Benchmark | | Change Station
CLOSE
Current Station
Personal Weather Station
Location: Mountain Village, CO
Elevation: 10118 ft
Nearby Weather Stations

Elev 10118 ft 37.92 °N, 107.86 °W | Updated 2 seconds ago

Clear
Clear
19.0 °F
Feels Like 19 °F
N
0.0
Wind Variable Wind from SE
Gusts 0.0 mph

Today
High -- | Low -- °F
--% Chance of Precip.
Yesterday
High -- | Low -- °F
Precip. -- in
Pressure 30.43 in
Visibility 10.0 miles
Clouds Clear
Windchill 19 °F
Dew Point -0 °F
Humidity 42%
Rainfall 0.00 in
Snow Depth Not available.
7:06 AM 5:45 PM
Waxing Crescent, 11% visible
METAR KTEX 111135Z AUTO 14007KT 10SM CLR M03/M16 A3043 RMK AO2 T10271159
Pressure 30.43 in
Visibility 10.0 miles
Clouds Clear
Windchill 19 °F
Dew Point -0 °F
Humidity 42%
Rainfall 0.00 in
Snow Depth Not available.
7:06 AM 5:45 PM
Waxing Crescent, 11% visible
METAR KTEX 111135Z AUTO 14007KT 10SM CLR M03/M16 A3043 RMK AO2 T10271159

10-Day Weather Forecast

Almanac

Astronomy

Feb. 11, 2016 Rise Set
Actual Time
Civil Twilight
Nautical Twilight
Astronomical Twilight
Moon
Length of Visible Light
Length of Day
Tomorrow will be .
, % of the Moon is Illuminated

Today's Extremes

State Highs State Lows

Community

WunderPhotos

Upload Photos

1,892,030 photos uploaded!

WunderBlog® & News

Nearby

Air Quality

  Air Quality AQ Index Pollutant
Not available.

Snow Depth

Station Depth Elevation

Earthquake Activity

City Distance Mag. Time & Date
Minimum magnitude displayed is 2.5.

Coastal Water Temperatures

Place Temperature

Stations

Nearby Weather Stations

Station Location Temp. Windchill Dew Point Humidity Wind Precip. Elev Updated Type
                   

Watches & Warnings

There are currently no watches in effect.